Mambai, Brazil
Current Conditions -  °F | °C
As of 6:00 AM on Friday 21 Nov 2014 (Local Time) from SBBR Reporting Station
Clear Clear  
Wind Chill: 68°   Ceiling: Unl
Heat Index: 68°   Visibility: 6mi
Dew Point: 54°   Wind: 3mph
Humidity: 60%   Direction: 180°S
Pressure: 30.06"   Gusts: NA
Location:  14.49°S, 46.11°W
Report Text: SBBR 210800Z 18003KT CAVOK 20/12 Q1018
Loading
Personal Weather Stations






























Interactive Weather Map New forecast layout! Learn more

10-Day Weather Forecast

Advertisements
Track Severe Weather on mobile